Time;durP1;ratioP1;P1;durP2;ratioP2;P2;SDS_P1;SDS_P2;PMS_P1;PMS_P2;Temp;Humidity;BMP_temperature;BMP_pressure;BME280_temperature;BME280_humidity;BME280_pressure;Samples;Min_cycle;Max_cycle;Signal;HPM_P1;HPM_P2
2022/10/22 00:01:16;;;;;;;15.77;11.02;;;13.70;99.90;;;;;;5000473;28;20147;-53
2022/10/22 00:03:42;;;;;;;14.85;11.52;;;13.70;99.90;;;;;;5017596;28;20033;-50
2022/10/22 00:06:07;;;;;;;15.73;11.73;;;13.70;99.90;;;;;;5022583;28;20512;-49
2022/10/22 00:08:33;;;;;;;18.50;12.63;;;13.70;99.90;;;;;;5013592;28;20037;-48
2022/10/22 00:10:58;;;;;;;15.43;11.82;;;13.70;99.90;;;;;;5020216;28;20034;-49
2022/10/22 00:13:24;;;;;;;21.60;12.27;;;13.70;99.90;;;;;;5015033;28;20526;-49
2022/10/22 00:15:50;;;;;;;14.45;11.00;;;13.70;99.90;;;;;;5018407;28;20492;-48
2022/10/22 00:18:15;;;;;;;16.58;11.13;;;13.70;99.90;;;;;;5020922;28;20041;-51
2022/10/22 00:20:42;;;;;;;14.82;10.57;;;13.70;99.90;;;;;;5029512;28;20096;-48
2022/10/22 00:23:07;;;;;;;13.52;10.20;;;13.70;99.90;;;;;;5035731;28;20041;-49
2022/10/22 00:25:34;;;;;;;14.95;12.10;;;13.80;99.90;;;;;;5021578;28;20026;-47
2022/10/22 00:28:01;;;;;;;15.15;10.20;;;13.80;99.90;;;;;;5019794;28;20030;-50
2022/10/22 00:30:27;;;;;;;14.10;10.30;;;13.80;99.90;;;;;;5019043;28;20044;-48
2022/10/22 00:32:52;;;;;;;14.57;11.02;;;13.70;99.90;;;;;;5011136;28;20030;-50
2022/10/22 00:35:25;;;;;;;13.98;10.55;;;13.70;99.90;;;;;;5016176;28;20170;-51
2022/10/22 00:37:51;;;;;;;15.52;11.13;;;13.70;99.90;;;;;;5014416;28;20026;-48
2022/10/22 00:40:17;;;;;;;13.02;10.52;;;13.70;99.90;;;;;;5024421;28;20033;-48
2022/10/22 00:42:42;;;;;;;13.20;10.82;;;13.70;99.90;;;;;;5017158;28;20439;-50
2022/10/22 00:45:11;;;;;;;12.60;10.10;;;13.70;99.90;;;;;;5020624;28;20121;-48
2022/10/22 00:47:38;;;;;;;14.57;11.50;;;13.80;99.90;;;;;;5020029;28;20368;-48
2022/10/22 00:50:06;;;;;;;18.05;11.40;;;13.70;99.90;;;;;;5020134;28;20087;-48
2022/10/22 00:52:32;;;;;;;12.95;11.00;;;13.80;99.90;;;;;;5018846;28;20033;-49
2022/10/22 00:55:00;;;;;;;13.93;11.45;;;13.80;99.90;;;;;;5017818;28;20030;-48
2022/10/22 00:57:26;;;;;;;13.65;10.30;;;13.80;99.90;;;;;;5016188;28;20029;-52
2022/10/22 00:59:53;;;;;;;18.88;12.07;;;13.80;99.90;;;;;;5015664;28;20416;-50
2022/10/22 01:02:18;;;;;;;14.07;11.25;;;13.80;99.90;;;;;;5020010;28;20021;-47
2022/10/22 01:04:44;;;;;;;12.13;10.82;;;13.80;99.90;;;;;;5016517;28;20460;-48
2022/10/22 01:07:17;;;;;;;13.40;10.57;;;13.80;99.90;;;;;;5035737;28;20032;-50
2022/10/22 01:09:59;;;;;;;14.63;10.48;;;13.80;99.90;;;;;;5021207;28;20035;-47
2022/10/22 01:12:53;;;;;;;14.65;11.13;;;13.80;99.90;;;;;;5005821;28;20030;-51
2022/10/22 01:15:34;;;;;;;17.52;12.63;;;13.80;99.90;;;;;;5011908;28;20187;-49
2022/10/22 01:18:08;;;;;;;18.10;11.55;;;13.80;99.90;;;;;;5016913;28;20026;-52
2022/10/22 01:21:07;;;;;;;13.20;10.60;;;13.80;99.90;;;;;;5019437;28;20022;-47
2022/10/22 01:23:46;;;;;;;12.98;10.43;;;13.80;99.90;;;;;;5040186;28;20033;-51
2022/10/22 01:26:20;;;;;;;12.93;10.35;;;13.80;99.90;;;;;;5020549;28;20021;-48
2022/10/22 01:29:06;;;;;;;16.52;11.68;;;13.80;99.90;;;;;;5019184;28;20040;-48
2022/10/22 01:31:40;;;;;;;18.05;13.13;;;13.80;99.90;;;;;;5012990;28;20518;-48
2022/10/22 01:34:08;;;;;;;13.98;11.38;;;13.80;99.90;;;;;;5020360;28;20030;-49
2022/10/22 01:36:36;;;;;;;15.65;11.23;;;13.80;99.90;;;;;;5014098;28;20113;-49
2022/10/22 01:41:38;;;;;;;14.48;10.85;;;13.80;99.90;;;;;;4987329;28;20102;-50
2022/10/22 01:44:04;;;;;;;15.43;11.85;;;13.80;99.90;;;;;;4999813;28;20093;-49
2022/10/22 01:46:30;;;;;;;13.80;10.63;;;13.80;99.90;;;;;;5000544;28;20087;-51
2022/10/22 01:49:27;;;;;;;16.60;12.27;;;13.80;99.90;;;;;;4998164;28;20477;-50
2022/10/22 01:52:01;;;;;;;15.38;10.25;;;13.70;99.90;;;;;;4983806;28;20576;-51
2022/10/22 01:54:38;;;;;;;13.07;10.18;;;13.70;99.90;;;;;;4977910;28;20027;-53
2022/10/22 01:57:27;;;;;;;16.17;10.85;;;13.60;99.90;;;;;;4977922;28;20038;-49
2022/10/22 02:00:03;;;;;;;11.70;10.35;;;13.60;99.90;;;;;;4975341;28;20023;-50
2022/10/22 02:02:40;;;;;;;12.93;10.38;;;13.50;99.90;;;;;;4983806;28;20148;-50
2022/10/22 02:05:41;;;;;;;11.05;8.55;;;13.50;99.90;;;;;;4980413;28;20043;-50
2022/10/22 02:08:16;;;;;;;10.73;8.48;;;13.40;99.90;;;;;;4960187;28;20674;-53
2022/10/22 02:10:45;;;;;;;13.38;10.70;;;13.30;99.90;;;;;;4974834;28;20071;-50
2022/10/22 02:13:28;;;;;;;10.88;7.75;;;13.30;99.90;;;;;;4979581;28;20522;-49
2022/10/22 02:15:54;;;;;;;10.00;8.30;;;13.20;99.90;;;;;;4977866;28;20033;-54
2022/10/22 02:18:25;;;;;;;9.98;8.00;;;13.20;99.90;;;;;;4976776;28;20022;-50
2022/10/22 02:20:51;;;;;;;10.77;7.75;;;13.10;99.90;;;;;;4981051;28;20166;-52
2022/10/22 02:23:16;;;;;;;10.02;8.35;;;13.10;99.90;;;;;;4978313;28;20110;-52
2022/10/22 02:25:48;;;;;;;11.57;8.40;;;13.10;99.90;;;;;;4983012;28;20052;-52
2022/10/22 02:28:44;;;;;;;14.15;8.77;;;13.00;99.90;;;;;;4977808;28;20045;-56
2022/10/22 02:31:17;;;;;;;8.23;6.97;;;12.90;99.90;;;;;;4985479;28;20054;-52
2022/10/22 02:33:47;;;;;;;8.30;7.50;;;12.90;99.90;;;;;;4976343;28;20110;-50
2022/10/22 02:36:14;;;;;;;12.68;8.77;;;12.90;99.90;;;;;;4976765;28;20026;-50
2022/10/22 02:38:41;;;;;;;9.80;8.57;;;12.80;99.90;;;;;;4982040;28;20026;-49
2022/10/22 02:41:07;;;;;;;10.65;9.05;;;12.80;99.90;;;;;;4983878;28;20035;-53
2022/10/22 02:43:47;;;;;;;9.82;8.27;;;12.80;99.90;;;;;;4984113;28;20033;-56
2022/10/22 02:46:13;;;;;;;11.57;8.57;;;12.70;99.90;;;;;;4984570;28;20117;-54
2022/10/22 02:48:39;;;;;;;9.95;8.88;;;12.70;99.90;;;;;;4981307;28;20030;-51
2022/10/22 02:51:04;;;;;;;10.35;8.57;;;12.60;99.90;;;;;;4979608;28;20031;-53
2022/10/22 02:53:30;;;;;;;9.00;7.57;;;12.60;99.90;;;;;;4983111;28;20041;-51
2022/10/22 02:55:56;;;;;;;9.38;7.65;;;12.50;99.90;;;;;;4983260;28;20271;-49
2022/10/22 02:58:21;;;;;;;10.32;7.65;;;12.50;99.90;;;;;;4984817;28;20023;-49
2022/10/22 03:00:47;;;;;;;9.63;7.43;;;12.50;99.90;;;;;;4984328;28;20066;-54
2022/10/22 03:03:13;;;;;;;9.40;7.47;;;12.40;99.90;;;;;;4984521;28;20057;-53
2022/10/22 03:05:38;;;;;;;9.15;7.30;;;12.40;99.90;;;;;;4975592;28;20505;-55
2022/10/22 03:08:04;;;;;;;9.77;8.73;;;12.40;99.90;;;;;;4983190;28;20382;-49
2022/10/22 03:10:30;;;;;;;9.45;7.63;;;12.30;99.90;;;;;;4980334;28;20247;-51
2022/10/22 03:12:55;;;;;;;9.45;7.72;;;12.30;99.90;;;;;;4982414;28;20030;-49
2022/10/22 03:15:21;;;;;;;9.18;7.72;;;12.30;99.90;;;;;;4980995;28;20019;-51
2022/10/22 03:17:46;;;;;;;9.57;7.18;;;12.30;99.90;;;;;;4983438;28;20026;-51
2022/10/22 03:20:12;;;;;;;9.82;7.90;;;12.20;99.90;;;;;;4982018;28;20624;-50
2022/10/22 03:22:39;;;;;;;11.43;7.95;;;12.20;99.90;;;;;;4969294;28;20421;-50
2022/10/22 03:25:09;;;;;;;10.20;7.97;;;12.20;99.90;;;;;;4982400;28;20494;-49
2022/10/22 03:27:36;;;;;;;10.13;8.43;;;12.20;99.90;;;;;;4975255;28;20037;-49
2022/10/22 03:30:02;;;;;;;9.63;7.80;;;12.20;99.90;;;;;;4981955;28;20061;-51
2022/10/22 03:32:28;;;;;;;9.65;8.60;;;12.20;99.90;;;;;;4977949;28;20049;-49
2022/10/22 03:34:53;;;;;;;10.98;8.70;;;12.20;99.90;;;;;;4981769;28;20405;-53
2022/10/22 03:37:19;;;;;;;8.90;7.22;;;12.10;99.90;;;;;;4983566;28;20113;-50
2022/10/22 03:39:45;;;;;;;9.05;7.43;;;12.10;99.90;;;;;;4981972;28;20098;-51
2022/10/22 03:42:12;;;;;;;10.15;8.85;;;12.10;99.90;;;;;;4983765;28;20034;-49
2022/10/22 03:44:39;;;;;;;10.45;8.48;;;12.10;99.90;;;;;;4982019;28;20145;-54
2022/10/22 03:47:05;;;;;;;10.50;7.88;;;12.10;99.90;;;;;;4980042;28;20070;-49
2022/10/22 03:49:30;;;;;;;10.70;7.93;;;12.10;99.90;;;;;;4983501;28;20026;-49
2022/10/22 03:51:56;;;;;;;11.18;8.75;;;12.10;99.90;;;;;;4983444;28;20081;-52
2022/10/22 03:54:22;;;;;;;11.55;8.95;;;12.10;99.90;;;;;;4982069;28;20109;-53
2022/10/22 03:56:47;;;;;;;10.13;8.90;;;12.10;99.90;;;;;;4982199;28;20022;-51
2022/10/22 03:59:13;;;;;;;12.60;9.15;;;12.10;99.90;;;;;;4983710;28;20459;-50
2022/10/22 04:01:39;;;;;;;9.63;8.20;;;12.10;99.90;;;;;;4997641;28;20026;-50
2022/10/22 04:04:05;;;;;;;8.77;7.15;;;12.10;99.90;;;;;;4979075;28;20389;-50
2022/10/22 04:06:30;;;;;;;7.80;7.00;;;12.10;99.90;;;;;;4983897;28;20491;-52
2022/10/22 04:08:57;;;;;;;9.35;8.02;;;12.10;99.90;;;;;;4999456;28;20113;-50
2022/10/22 04:11:23;;;;;;;8.68;7.78;;;12.10;99.90;;;;;;4978835;28;20029;-50
2022/10/22 04:13:49;;;;;;;8.25;7.45;;;12.10;99.90;;;;;;4980143;28;20038;-53
2022/10/22 04:16:18;;;;;;;8.95;7.78;;;12.10;99.90;;;;;;4981209;28;20029;-51
2022/10/22 04:18:45;;;;;;;7.38;6.63;;;12.10;99.90;;;;;;4980041;28;20110;-49
2022/10/22 04:21:13;;;;;;;9.57;7.82;;;12.00;99.90;;;;;;4983149;28;20039;-56
2022/10/22 04:23:47;;;;;;;10.38;8.27;;;12.00;99.90;;;;;;4979360;28;20042;-51
2022/10/22 04:26:13;;;;;;;13.50;8.95;;;12.00;99.90;;;;;;4979204;28;20117;-50
2022/10/22 04:28:39;;;;;;;13.90;10.32;;;12.00;99.90;;;;;;4983919;28;20026;-52
2022/10/22 04:31:13;;;;;;;13.10;9.77;;;12.10;99.90;;;;;;4981148;28;20043;-49
2022/10/22 04:33:39;;;;;;;17.67;12.68;;;12.10;99.90;;;;;;4975894;28;20054;-51
2022/10/22 04:36:10;;;;;;;15.20;10.77;;;12.10;99.90;;;;;;4980861;28;20062;-50
2022/10/22 04:38:36;;;;;;;12.60;10.43;;;12.20;99.90;;;;;;4980006;28;20019;-50
2022/10/22 04:41:13;;;;;;;12.18;10.15;;;12.20;99.90;;;;;;4977058;28;20045;-50
2022/10/22 04:43:40;;;;;;;13.07;9.80;;;12.20;99.90;;;;;;4976811;28;20022;-52
2022/10/22 04:46:08;;;;;;;17.63;12.60;;;12.30;99.90;;;;;;4981375;28;20039;-49
2022/10/22 04:48:37;;;;;;;14.20;11.98;;;12.30;99.90;;;;;;4995591;28;20077;-52
2022/10/22 04:51:05;;;;;;;13.70;11.60;;;12.30;99.90;;;;;;4976849;28;20449;-49
2022/10/22 04:53:31;;;;;;;14.82;11.43;;;12.30;99.90;;;;;;4981862;28;20417;-50
2022/10/22 04:56:35;;;;;;;13.85;12.00;;;12.30;99.90;;;;;;4981101;28;20037;-50
2022/10/22 04:59:06;;;;;;;14.63;12.07;;;12.40;99.90;;;;;;4970728;28;20042;-50
2022/10/22 05:01:35;;;;;;;13.60;12.05;;;12.40;99.90;;;;;;4980871;28;20023;-50
2022/10/22 05:04:01;;;;;;;14.00;11.52;;;12.40;99.90;;;;;;4980325;28;20615;-53
2022/10/22 05:06:29;;;;;;;15.35;12.02;;;12.40;99.90;;;;;;4980462;28;20109;-50
2022/10/22 05:08:57;;;;;;;13.57;11.40;;;12.40;99.90;;;;;;4977994;28;20045;-53
2022/10/22 05:11:27;;;;;;;13.98;11.63;;;12.40;99.90;;;;;;4974551;28;20135;-53
2022/10/22 05:13:54;;;;;;;17.95;14.20;;;12.40;99.90;;;;;;4978018;28;20027;-54
2022/10/22 05:16:19;;;;;;;13.80;11.90;;;12.40;99.90;;;;;;4982151;28;20512;-51
2022/10/22 05:18:45;;;;;;;16.45;12.38;;;12.40;99.90;;;;;;4981283;28;20022;-52
2022/10/22 05:21:13;;;;;;;16.13;13.35;;;12.40;99.90;;;;;;4976903;28;20049;-54
2022/10/22 05:23:39;;;;;;;13.95;11.23;;;12.40;99.90;;;;;;4981360;28;20542;-51
2022/10/22 05:26:06;;;;;;;18.90;12.57;;;12.40;99.90;;;;;;4980169;28;20115;-53
2022/10/22 05:28:33;;;;;;;13.98;12.23;;;12.50;99.90;;;;;;4983354;28;20117;-49
2022/10/22 05:31:00;;;;;;;19.60;14.10;;;12.40;99.90;;;;;;4980572;28;20452;-49
2022/10/22 05:33:27;;;;;;;17.00;13.38;;;12.40;99.90;;;;;;4978481;28;20054;-52
2022/10/22 05:35:53;;;;;;;26.17;15.75;;;12.40;99.90;;;;;;4983877;28;20534;-49
2022/10/22 05:38:19;;;;;;;16.98;13.73;;;12.40;99.90;;;;;;4977239;28;20209;-50
2022/10/22 05:40:45;;;;;;;14.95;12.38;;;12.50;99.90;;;;;;4981194;28;20031;-50
2022/10/22 05:43:11;;;;;;;14.73;12.88;;;12.50;99.90;;;;;;4976915;28;20148;-52
2022/10/22 05:45:38;;;;;;;19.85;13.98;;;12.50;99.90;;;;;;4977709;28;20030;-50
2022/10/22 05:48:04;;;;;;;17.52;14.20;;;12.50;99.90;;;;;;4977945;28;20030;-50
2022/10/22 05:50:30;;;;;;;25.15;16.48;;;12.50;99.90;;;;;;4982029;28;20384;-51
2022/10/22 05:52:56;;;;;;;19.70;14.88;;;12.50;99.90;;;;;;4977823;28;20031;-52
2022/10/22 05:55:21;;;;;;;19.83;14.48;;;12.50;99.90;;;;;;4980161;28;20035;-53
2022/10/22 05:57:48;;;;;;;20.95;15.10;;;12.50;99.90;;;;;;4977577;28;20145;-51
2022/10/22 06:00:15;;;;;;;18.13;14.98;;;12.50;99.90;;;;;;4977558;28;20019;-50
2022/10/22 06:02:41;;;;;;;27.35;16.88;;;12.50;99.90;;;;;;4977810;28;20525;-49
2022/10/22 06:05:06;;;;;;;19.42;15.70;;;12.60;99.90;;;;;;4980678;28;20141;-52
2022/10/22 06:07:32;;;;;;;20.25;14.55;;;12.60;99.90;;;;;;4981988;28;20181;-50
2022/10/22 06:09:58;;;;;;;23.55;16.80;;;12.60;99.90;;;;;;4979555;28;20121;-50
2022/10/22 06:12:24;;;;;;;23.73;16.92;;;12.60;99.90;;;;;;4978631;28;20110;-50
2022/10/22 06:14:49;;;;;;;22.55;16.35;;;12.60;99.90;;;;;;4981840;28;20481;-53
2022/10/22 06:17:15;;;;;;;25.13;17.50;;;12.60;99.90;;;;;;4988477;28;20031;-51
2022/10/22 06:19:41;;;;;;;28.42;18.55;;;12.60;99.90;;;;;;4981367;28;20074;-50
2022/10/22 06:22:07;;;;;;;29.05;19.20;;;12.70;99.90;;;;;;4983458;28;20027;-51
2022/10/22 06:24:32;;;;;;;35.50;21.05;;;12.70;99.90;;;;;;4980858;28;20061;-53
2022/10/22 06:26:58;;;;;;;30.60;19.60;;;12.70;99.90;;;;;;4980851;28;20045;-49
2022/10/22 06:29:24;;;;;;;24.27;18.05;;;12.70;99.90;;;;;;4981054;28;20105;-53
2022/10/22 06:31:50;;;;;;;28.00;18.63;;;12.70;99.90;;;;;;4981066;28;20027;-50
2022/10/22 06:34:17;;;;;;;29.02;19.65;;;12.70;99.90;;;;;;4989723;28;20026;-50
2022/10/22 06:36:44;;;;;;;28.55;18.33;;;12.70;99.90;;;;;;4982041;28;20110;-55
2022/10/22 06:39:14;;;;;;;29.25;20.63;;;12.80;99.90;;;;;;4983700;28;20026;-52
2022/10/22 06:41:40;;;;;;;31.55;19.40;;;12.70;99.90;;;;;;4975578;28;20134;-51
2022/10/22 06:44:06;;;;;;;29.83;20.30;;;12.80;99.90;;;;;;4972446;28;20110;-50
2022/10/22 06:46:31;;;;;;;26.98;19.30;;;12.80;99.90;;;;;;4975315;28;20563;-53
2022/10/22 06:49:00;;;;;;;26.70;19.13;;;12.80;99.90;;;;;;4974369;28;20122;-49
2022/10/22 06:51:26;;;;;;;32.67;21.90;;;12.80;99.90;;;;;;4987491;28;20030;-53
2022/10/22 06:53:53;;;;;;;30.90;19.60;;;12.80;99.90;;;;;;4981089;28;20019;-50
2022/10/22 06:56:21;;;;;;;36.92;21.48;;;12.80;99.90;;;;;;4982396;28;20018;-50
2022/10/22 06:58:50;;;;;;;29.60;19.98;;;12.80;99.90;;;;;;4984760;28;20030;-50
2022/10/22 07:01:17;;;;;;;33.60;19.88;;;12.80;99.90;;;;;;4971242;28;20034;-49
2022/10/22 07:03:43;;;;;;;26.63;18.60;;;12.80;99.90;;;;;;4980713;28;20401;-50
2022/10/22 07:06:12;;;;;;;28.02;18.77;;;12.80;99.90;;;;;;4979824;28;20054;-51
2022/10/22 07:08:38;;;;;;;29.27;18.63;;;12.80;99.90;;;;;;4999629;28;20054;-49
2022/10/22 07:11:10;;;;;;;26.38;19.15;;;12.90;99.90;;;;;;4980518;28;20049;-54
2022/10/22 07:13:35;;;;;;;32.20;20.52;;;12.90;99.90;;;;;;4982295;28;20064;-49
2022/10/22 07:16:01;;;;;;;26.50;18.58;;;12.90;99.90;;;;;;4976331;28;20063;-49
2022/10/22 07:18:27;;;;;;;29.67;18.27;;;12.90;99.90;;;;;;4985411;28;20489;-50
2022/10/22 07:20:53;;;;;;;32.22;19.13;;;12.90;99.90;;;;;;4983625;28;20018;-51
2022/10/22 07:23:19;;;;;;;24.75;17.55;;;12.90;99.90;;;;;;4984155;28;20489;-55
2022/10/22 07:25:44;;;;;;;22.85;16.60;;;12.90;99.90;;;;;;4983172;28;20112;-50
2022/10/22 07:28:10;;;;;;;30.55;19.38;;;12.90;99.90;;;;;;4983085;28;20481;-49
2022/10/22 07:30:36;;;;;;;28.02;18.10;;;12.90;99.90;;;;;;4983843;28;20453;-50
2022/10/22 07:33:02;;;;;;;24.15;17.45;;;13.00;99.90;;;;;;4982239;28;20425;-52
2022/10/22 07:35:28;;;;;;;22.30;16.60;;;13.00;99.90;;;;;;4984178;28;20077;-54
2022/10/22 07:37:54;;;;;;;17.58;15.27;;;13.00;99.90;;;;;;4983272;28;20023;-49
2022/10/22 07:40:19;;;;;;;29.77;16.98;;;13.00;99.90;;;;;;5009988;22;20030;-55
2022/10/22 07:42:45;;;;;;;24.70;17.05;;;13.00;99.90;;;;;;5019199;28;20567;-50
2022/10/22 07:45:11;;;;;;;22.95;16.77;;;13.00;99.90;;;;;;5025171;28;20026;-54
2022/10/22 07:47:36;;;;;;;18.50;14.50;;;13.00;99.90;;;;;;5019454;28;20530;-48
2022/10/22 07:50:03;;;;;;;20.75;14.93;;;13.00;99.90;;;;;;5024704;28;20033;-51
2022/10/22 07:52:28;;;;;;;24.02;16.10;;;13.10;99.90;;;;;;5015326;28;20042;-48
2022/10/22 07:54:54;;;;;;;21.17;15.75;;;13.10;99.90;;;;;;5024841;28;20021;-49
2022/10/22 07:57:19;;;;;;;21.88;15.98;;;13.10;99.90;;;;;;5016753;28;20377;-50
2022/10/22 07:59:45;;;;;;;20.65;16.48;;;13.10;99.90;;;;;;5027217;28;20045;-50
2022/10/22 08:02:11;;;;;;;19.33;14.90;;;13.10;99.90;;;;;;5019140;28;20026;-53
2022/10/22 08:04:37;;;;;;;18.70;13.98;;;13.20;99.90;;;;;;5018261;28;20058;-51
2022/10/22 08:07:03;;;;;;;21.85;15.20;;;13.20;99.90;;;;;;5017795;28;20483;-50
2022/10/22 08:09:29;;;;;;;23.70;16.15;;;13.20;99.90;;;;;;5015390;28;20111;-51
2022/10/22 08:11:54;;;;;;;22.25;16.45;;;13.20;99.90;;;;;;5026086;28;20033;-52
2022/10/22 08:14:20;;;;;;;21.45;15.75;;;13.20;99.90;;;;;;5018898;28;20028;-48
2022/10/22 08:16:46;;;;;;;22.25;15.40;;;13.20;99.90;;;;;;5026646;28;20241;-48
2022/10/22 08:19:12;;;;;;;20.33;15.27;;;13.30;99.90;;;;;;5019167;28;20138;-51
2022/10/22 08:21:38;;;;;;;25.48;17.23;;;13.30;99.90;;;;;;5013464;28;20029;-51
2022/10/22 08:24:05;;;;;;;20.25;14.30;;;13.30;99.90;;;;;;5026146;28;20040;-49
2022/10/22 08:26:30;;;;;;;21.52;16.10;;;13.30;99.90;;;;;;5020497;28;20489;-50
2022/10/22 08:28:57;;;;;;;21.33;14.57;;;13.30;99.90;;;;;;5024546;28;20083;-53
2022/10/22 08:31:22;;;;;;;20.65;14.43;;;13.30;99.90;;;;;;5018121;28;20044;-48
2022/10/22 08:33:48;;;;;;;17.58;14.02;;;13.30;99.90;;;;;;5024519;28;20018;-48
2022/10/22 08:36:14;;;;;;;21.15;14.98;;;13.40;99.90;;;;;;5012572;28;20014;-51
2022/10/22 08:38:39;;;;;;;18.67;13.98;;;13.40;99.90;;;;;;5018500;28;20018;-53
2022/10/22 08:41:10;;;;;;;19.25;14.68;;;13.40;99.90;;;;;;5024867;28;20069;-51
2022/10/22 08:44:15;;;;;;;21.85;15.50;;;13.50;99.90;;;;;;5018386;28;20029;-51
2022/10/22 08:47:05;;;;;;;21.15;15.32;;;13.50;99.90;;;;;;5011052;28;20052;-53
2022/10/22 08:49:35;;;;;;;20.27;14.57;;;13.60;99.90;;;;;;5014810;28;20030;-48
2022/10/22 08:52:01;;;;;;;20.17;14.93;;;13.60;99.90;;;;;;5033867;28;20034;-48
2022/10/22 08:54:36;;;;;;;22.42;15.80;;;13.70;99.90;;;;;;5022035;28;20025;-48
2022/10/22 08:57:08;;;;;;;19.25;14.45;;;13.70;99.90;;;;;;5022026;28;20551;-49
2022/10/22 08:59:43;;;;;;;19.50;15.48;;;13.70;99.90;;;;;;5018650;28;20538;-52
2022/10/22 09:02:27;;;;;;;17.65;14.23;;;13.80;99.90;;;;;;5014993;28;20040;-49
2022/10/22 09:05:31;;;;;;;20.52;15.13;;;13.80;99.90;;;;;;5015966;28;20060;-48
2022/10/22 09:07:57;;;;;;;17.40;13.82;;;13.90;99.90;;;;;;5016951;28;20025;-50
2022/10/22 09:10:26;;;;;;;25.05;15.35;;;14.00;99.90;;;;;;5020273;28;20040;-53
2022/10/22 09:12:52;;;;;;;23.08;15.35;;;14.00;99.90;;;;;;5020329;28;20432;-54
2022/10/22 09:15:18;;;;;;;16.90;13.52;;;14.10;99.90;;;;;;5020975;28;20031;-48
2022/10/22 09:18:17;;;;;;;18.38;14.02;;;14.10;99.90;;;;;;5021830;28;20026;-53
2022/10/22 09:20:55;;;;;;;19.15;14.32;;;14.20;99.90;;;;;;5013961;28;20053;-53
2022/10/22 09:23:36;;;;;;;18.17;12.80;;;14.30;99.90;;;;;;5007671;28;20104;-52
2022/10/22 09:26:03;;;;;;;18.77;12.95;;;14.20;99.90;;;;;;5018571;28;20117;-54
2022/10/22 09:28:29;;;;;;;19.35;13.32;;;14.30;99.90;;;;;;5015310;28;20021;-52
2022/10/22 09:30:55;;;;;;;18.95;12.88;;;14.20;99.90;;;;;;5014835;28;20553;-49
2022/10/22 09:33:26;;;;;;;21.13;13.98;;;14.30;99.90;;;;;;5030419;28;20532;-48
2022/10/22 09:35:57;;;;;;;16.95;12.48;;;14.30;99.90;;;;;;5012425;28;21517;-48
2022/10/22 09:38:29;;;;;;;17.75;12.52;;;14.40;99.90;;;;;;5014753;28;20014;-52
2022/10/22 09:40:56;;;;;;;14.95;12.18;;;14.40;99.90;;;;;;5017374;28;20511;-49
2022/10/22 09:43:22;;;;;;;18.00;12.00;;;14.50;99.90;;;;;;5017286;28;20079;-51
2022/10/22 09:45:53;;;;;;;15.13;11.55;;;14.50;99.90;;;;;;5017490;28;20100;-51
2022/10/22 09:48:25;;;;;;;13.85;10.32;;;14.60;99.90;;;;;;5011915;28;20057;-50
2022/10/22 09:51:00;;;;;;;15.60;11.57;;;14.60;99.90;;;;;;5017508;28;20057;-50
2022/10/22 09:53:29;;;;;;;12.75;10.18;;;14.70;99.90;;;;;;5030960;28;20029;-48
2022/10/22 09:55:59;;;;;;;17.63;10.57;;;14.70;99.90;;;;;;5017107;28;20053;-50
2022/10/22 09:58:26;;;;;;;11.60;9.30;;;14.70;99.90;;;;;;5013017;28;20485;-48
2022/10/22 10:00:55;;;;;;;15.77;10.68;;;14.80;99.90;;;;;;5016062;28;20021;-50
2022/10/22 10:03:23;;;;;;;16.25;9.45;;;14.80;99.90;;;;;;5021151;28;20045;-48
2022/10/22 10:05:53;;;;;;;15.75;9.75;;;14.90;99.90;;;;;;5016305;28;20044;-50
2022/10/22 10:08:19;;;;;;;11.55;8.55;;;15.00;99.90;;;;;;5023962;28;20020;-49
2022/10/22 10:10:58;;;;;;;13.63;9.18;;;15.10;99.90;;;;;;5017055;28;20157;-50
2022/10/22 10:14:02;;;;;;;10.38;7.30;;;15.10;99.90;;;;;;5006612;28;20047;-55
2022/10/22 10:16:30;;;;;;;8.88;6.43;;;15.10;99.90;;;;;;4992872;28;20045;-50
2022/10/22 10:19:21;;;;;;;8.77;6.38;;;15.20;99.90;;;;;;5019130;28;20488;-52
2022/10/22 10:22:04;;;;;;;12.18;7.18;;;15.30;99.90;;;;;;5018415;28;20517;-51
2022/10/22 10:24:29;;;;;;;11.95;6.18;;;15.40;99.90;;;;;;5010776;28;20033;-48
2022/10/22 10:27:31;;;;;;;7.43;5.20;;;15.40;99.90;;;;;;5019919;28;20021;-48
2022/10/22 10:30:01;;;;;;;9.07;5.22;;;15.40;99.90;;;;;;4984622;28;20069;-53
2022/10/22 10:32:48;;;;;;;9.48;5.28;;;15.40;99.90;;;;;;5019206;28;20091;-51
2022/10/22 10:35:53;;;;;;;8.23;4.85;;;15.50;99.90;;;;;;5010152;28;20096;-52
2022/10/22 10:38:44;;;;;;;7.95;4.63;;;15.50;99.90;;;;;;5015409;28;20029;-51
2022/10/22 10:41:22;;;;;;;9.52;4.93;;;15.60;99.90;;;;;;5019066;28;20037;-60
2022/10/22 10:43:53;;;;;;;7.80;4.25;;;15.60;99.90;;;;;;5029245;28;20037;-51
2022/10/22 10:46:42;;;;;;;12.63;4.57;;;15.70;99.90;;;;;;5003866;28;20034;-52
2022/10/22 10:49:31;;;;;;;7.82;4.00;;;15.70;99.90;;;;;;5018010;28;20036;-49
2022/10/22 10:52:07;;;;;;;6.53;3.53;;;15.80;99.90;;;;;;5011596;28;20523;-50
2022/10/22 10:54:51;;;;;;;12.48;4.10;;;15.90;99.90;;;;;;5031544;28;20025;-49
2022/10/22 10:57:41;;;;;;;6.93;3.92;;;15.90;99.90;;;;;;5006149;28;20021;-48
2022/10/22 11:00:13;;;;;;;5.65;3.00;;;15.90;99.90;;;;;;5025444;28;20024;-49
2022/10/22 11:02:47;;;;;;;8.40;3.33;;;16.00;99.90;;;;;;5012223;28;20026;-51
2022/10/22 11:05:46;;;;;;;7.03;3.25;;;16.10;99.90;;;;;;5023709;28;20028;-49
2022/10/22 11:08:19;;;;;;;6.68;2.92;;;16.10;99.90;;;;;;5018942;28;20391;-49
2022/10/22 11:10:50;;;;;;;5.65;2.92;;;16.20;99.90;;;;;;5023181;28;20022;-50
2022/10/22 11:13:30;;;;;;;12.40;3.20;;;16.20;99.90;;;;;;5016239;28;20395;-51
2022/10/22 11:16:11;;;;;;;14.07;3.55;;;16.30;99.90;;;;;;5022992;28;20013;-53
2022/10/22 11:19:03;;;;;;;8.00;2.90;;;16.40;99.90;;;;;;5022579;28;20108;-50
2022/10/22 11:21:38;;;;;;;7.82;2.92;;;16.40;99.90;;;;;;5009294;28;20113;-48
2022/10/22 11:24:13;;;;;;;6.20;3.38;;;16.40;99.90;;;;;;5025727;28;20032;-52
2022/10/22 11:26:54;;;;;;;5.15;2.63;;;16.50;99.90;;;;;;5020505;28;20075;-49
2022/10/22 11:29:40;;;;;;;3.60;2.35;;;16.60;99.90;;;;;;5013173;28;20515;-50
2022/10/22 11:32:17;;;;;;;2.78;1.90;;;16.70;99.90;;;;;;5021102;28;20045;-48
2022/10/22 11:34:53;;;;;;;5.05;2.33;;;16.80;99.90;;;;;;5005025;28;20647;-50
2022/10/22 11:37:20;;;;;;;3.63;1.77;;;16.90;99.90;;;;;;5019263;28;20087;-52
2022/10/22 11:40:01;;;;;;;8.05;2.30;;;17.00;99.90;;;;;;5018710;28;20496;-48
2022/10/22 11:42:51;;;;;;;7.45;2.33;;;17.10;99.90;;;;;;5016959;28;20492;-49
2022/10/22 11:45:16;;;;;;;5.78;2.28;;;17.20;99.90;;;;;;5018651;28;20077;-50
2022/10/22 11:48:10;;;;;;;5.13;2.53;;;17.20;99.90;;;;;;5019836;28;20026;-49
2022/10/22 11:50:56;;;;;;;8.52;2.08;;;17.20;99.90;;;;;;5016470;28;20037;-48
2022/10/22 11:53:24;;;;;;;3.97;2.05;;;17.20;99.90;;;;;;5009935;28;20039;-49
2022/10/22 11:55:52;;;;;;;5.85;1.80;;;17.20;99.90;;;;;;5021358;28;20018;-50
2022/10/22 11:58:34;;;;;;;4.32;2.03;;;17.20;99.90;;;;;;5022922;28;20021;-50
2022/10/22 12:01:08;;;;;;;5.57;1.83;;;17.20;99.90;;;;;;5022247;28;20022;-49
2022/10/22 12:03:36;;;;;;;5.00;2.10;;;17.20;99.90;;;;;;5022724;28;20110;-48
2022/10/22 12:06:11;;;;;;;6.95;2.17;;;17.30;99.90;;;;;;5020757;28;20076;-48
2022/10/22 12:08:48;;;;;;;8.20;2.80;;;17.30;99.90;;;;;;5023082;28;20025;-49
2022/10/22 12:11:40;;;;;;;4.82;2.28;;;17.30;99.90;;;;;;5019785;28;20018;-51
2022/10/22 12:14:27;;;;;;;5.50;2.15;;;17.30;99.90;;;;;;5018862;28;20127;-54
2022/10/22 12:16:57;;;;;;;7.72;2.47;;;17.40;99.90;;;;;;5026047;28;20021;-49
2022/10/22 12:19:26;;;;;;;7.25;2.80;;;17.40;99.90;;;;;;5017869;28;20326;-49
2022/10/22 12:21:54;;;;;;;7.10;3.00;;;17.40;99.90;;;;;;5017623;28;20018;-49
2022/10/22 12:24:22;;;;;;;7.30;2.65;;;17.40;99.90;;;;;;5024481;28;20022;-49
2022/10/22 12:26:51;;;;;;;7.47;2.92;;;17.50;99.90;;;;;;5017725;28;20026;-52
2022/10/22 12:29:18;;;;;;;3.50;2.60;;;17.50;99.90;;;;;;5010783;28;20154;-48
2022/10/22 12:31:46;;;;;;;4.55;2.60;;;17.60;99.90;;;;;;5016918;28;20077;-49
2022/10/22 12:34:21;;;;;;;4.55;2.30;;;17.70;99.90;;;;;;5019386;28;20488;-49
2022/10/22 12:36:48;;;;;;;6.15;2.95;;;17.70;99.90;;;;;;5017355;28;20243;-52
2022/10/22 12:39:17;;;;;;;7.20;3.55;;;17.70;99.90;;;;;;5023021;28;20041;-50
2022/10/22 12:41:43;;;;;;;5.43;3.28;;;17.80;99.90;;;;;;5018675;28;20029;-53
2022/10/22 12:44:15;;;;;;;6.53;3.17;;;17.80;99.90;;;;;;5020984;28;20084;-49
2022/10/22 12:46:43;;;;;;;7.07;3.25;;;17.80;99.90;;;;;;5015979;28;20550;-48
2022/10/22 12:49:22;;;;;;;6.53;3.05;;;17.80;99.90;;;;;;5020002;28;20036;-48
2022/10/22 12:51:48;;;;;;;4.10;2.90;;;17.80;99.90;;;;;;5013582;28;20029;-52
2022/10/22 12:54:26;;;;;;;6.45;3.00;;;17.80;99.90;;;;;;5017952;28;20423;-48